Lebbeke, Belgium
Current Conditions -  °F | °C
As of 7:20 PM on Thursday 27 Nov 2014 (Local Time) from EBAW Reporting Station
Haze Haze  
Wind Chill: 46°   Ceiling: 400
Heat Index: 48°   Visibility: 2.6mi
Dew Point: 45°   Wind: 6mph
Humidity: 87%   Direction: 90°E
Pressure: 29.68"   Gusts: NA
Location:  51°N, 4.13°E
Report Text: EBAW 271820Z 09005KT 4200 BR FEW003 BKN004 09/07 Q1005 NOSIG
Loading
Personal Weather Stations






























Interactive Weather Map New forecast layout! Learn more

10-Day Weather Forecast

Advertisements
Track Severe Weather on mobile